sensor_id;sensor_type;location;lat;lon;timestamp;pressure;altitude;pressure_sealevel;temperature;humidity
55916;BME280;41826;53.246;-6.670;2022-08-30T00:00:13;101672.50;;;14.34;100.00
55916;BME280;41826;53.246;-6.670;2022-08-30T00:02:58;101664.06;;;14.30;100.00
55916;BME280;41826;53.246;-6.670;2022-08-30T00:05:26;101671.00;;;14.31;100.00
55916;BME280;41826;53.246;-6.670;2022-08-30T00:07:51;101669.88;;;14.34;100.00
55916;BME280;41826;53.246;-6.670;2022-08-30T00:10:17;101675.28;;;14.32;100.00
55916;BME280;41826;53.246;-6.670;2022-08-30T00:12:43;101679.59;;;14.43;100.00
55916;BME280;41826;53.246;-6.670;2022-08-30T00:15:10;101683.34;;;14.41;100.00
55916;BME280;41826;53.246;-6.670;2022-08-30T00:17:36;101678.72;;;14.43;100.00
55916;BME280;41826;53.246;-6.670;2022-08-30T00:20:04;101682.53;;;14.30;100.00
55916;BME280;41826;53.246;-6.670;2022-08-30T00:22:30;101681.84;;;14.28;100.00
55916;BME280;41826;53.246;-6.670;2022-08-30T00:24:57;101686.84;;;14.31;100.00
55916;BME280;41826;53.246;-6.670;2022-08-30T00:27:27;101694.06;;;14.29;100.00
55916;BME280;41826;53.246;-6.670;2022-08-30T00:29:53;101689.50;;;14.22;100.00
55916;BME280;41826;53.246;-6.670;2022-08-30T00:32:18;101696.31;;;14.24;100.00
55916;BME280;41826;53.246;-6.670;2022-08-30T00:34:46;101696.41;;;14.32;100.00
55916;BME280;41826;53.246;-6.670;2022-08-30T00:37:12;101691.53;;;14.38;100.00
55916;BME280;41826;53.246;-6.670;2022-08-30T00:39:38;101691.50;;;14.47;100.00
55916;BME280;41826;53.246;-6.670;2022-08-30T00:42:03;101679.28;;;14.56;100.00
55916;BME280;41826;53.246;-6.670;2022-08-30T00:44:29;101672.56;;;14.62;100.00
55916;BME280;41826;53.246;-6.670;2022-08-30T00:46:54;101658.25;;;14.64;100.00
55916;BME280;41826;53.246;-6.670;2022-08-30T00:49:20;101663.91;;;14.69;100.00
55916;BME280;41826;53.246;-6.670;2022-08-30T00:51:46;101668.38;;;14.69;100.00
55916;BME280;41826;53.246;-6.670;2022-08-30T00:54:12;101670.63;;;14.64;100.00
55916;BME280;41826;53.246;-6.670;2022-08-30T00:56:38;101686.50;;;14.44;100.00
55916;BME280;41826;53.246;-6.670;2022-08-30T00:59:04;101691.53;;;14.38;100.00
55916;BME280;41826;53.246;-6.670;2022-08-30T01:01:31;101691.22;;;14.50;100.00
55916;BME280;41826;53.246;-6.670;2022-08-30T01:03:57;101688.44;;;14.52;100.00
55916;BME280;41826;53.246;-6.670;2022-08-30T01:06:23;101690.97;;;14.54;100.00
55916;BME280;41826;53.246;-6.670;2022-08-30T01:08:50;101697.47;;;14.49;100.00
55916;BME280;41826;53.246;-6.670;2022-08-30T01:11:18;101693.19;;;14.48;100.00
55916;BME280;41826;53.246;-6.670;2022-08-30T01:13:44;101683.88;;;14.54;100.00
55916;BME280;41826;53.246;-6.670;2022-08-30T01:16:12;101664.66;;;14.62;100.00
55916;BME280;41826;53.246;-6.670;2022-08-30T01:18:38;101667.81;;;14.65;100.00
55916;BME280;41826;53.246;-6.670;2022-08-30T01:23:34;101641.00;;;14.88;100.00
55916;BME280;41826;53.246;-6.670;2022-08-30T01:26:02;101658.41;;;14.81;100.00
55916;BME280;41826;53.246;-6.670;2022-08-30T01:28:28;101670.38;;;14.57;100.00
55916;BME280;41826;53.246;-6.670;2022-08-30T01:30:55;101684.72;;;14.35;100.00
55916;BME280;41826;53.246;-6.670;2022-08-30T01:33:21;101693.50;;;14.36;100.00
55916;BME280;41826;53.246;-6.670;2022-08-30T01:36:13;101691.13;;;14.32;100.00
55916;BME280;41826;53.246;-6.670;2022-08-30T01:38:43;101696.81;;;14.38;100.00
55916;BME280;41826;53.246;-6.670;2022-08-30T01:41:13;101701.03;;;14.30;100.00
55916;BME280;41826;53.246;-6.670;2022-08-30T01:43:40;101700.47;;;14.27;100.00
55916;BME280;41826;53.246;-6.670;2022-08-30T01:46:05;101703.53;;;14.22;100.00
55916;BME280;41826;53.246;-6.670;2022-08-30T01:48:31;101710.09;;;14.08;100.00
55916;BME280;41826;53.246;-6.670;2022-08-30T01:50:57;101714.00;;;14.04;100.00
55916;BME280;41826;53.246;-6.670;2022-08-30T01:53:22;101716.22;;;13.99;100.00
55916;BME280;41826;53.246;-6.670;2022-08-30T01:55:48;101723.88;;;13.93;100.00
55916;BME280;41826;53.246;-6.670;2022-08-30T01:58:13;101717.47;;;14.05;100.00
55916;BME280;41826;53.246;-6.670;2022-08-30T02:00:39;101722.47;;;14.08;100.00
55916;BME280;41826;53.246;-6.670;2022-08-30T02:03:05;101729.13;;;14.12;100.00
55916;BME280;41826;53.246;-6.670;2022-08-30T02:05:31;101722.59;;;14.16;100.00
55916;BME280;41826;53.246;-6.670;2022-08-30T02:07:57;101720.91;;;14.25;100.00
55916;BME280;41826;53.246;-6.670;2022-08-30T02:10:22;101713.81;;;14.25;100.00
55916;BME280;41826;53.246;-6.670;2022-08-30T02:12:48;101710.31;;;14.35;100.00
55916;BME280;41826;53.246;-6.670;2022-08-30T02:15:14;101711.16;;;14.35;100.00
55916;BME280;41826;53.246;-6.670;2022-08-30T02:17:40;101703.50;;;14.32;100.00
55916;BME280;41826;53.246;-6.670;2022-08-30T02:20:07;101710.91;;;14.28;100.00
55916;BME280;41826;53.246;-6.670;2022-08-30T02:22:33;101710.81;;;14.11;100.00
55916;BME280;41826;53.246;-6.670;2022-08-30T02:24:58;101717.31;;;14.06;100.00
55916;BME280;41826;53.246;-6.670;2022-08-30T02:27:25;101721.09;;;14.04;100.00
55916;BME280;41826;53.246;-6.670;2022-08-30T02:29:51;101721.50;;;13.99;100.00
55916;BME280;41826;53.246;-6.670;2022-08-30T02:32:17;101723.19;;;13.91;100.00
55916;BME280;41826;53.246;-6.670;2022-08-30T02:34:42;101723.47;;;13.87;100.00
55916;BME280;41826;53.246;-6.670;2022-08-30T02:37:09;101731.41;;;13.87;100.00
55916;BME280;41826;53.246;-6.670;2022-08-30T02:39:34;101730.13;;;13.92;100.00
55916;BME280;41826;53.246;-6.670;2022-08-30T02:42:00;101734.28;;;13.94;100.00
55916;BME280;41826;53.246;-6.670;2022-08-30T02:44:25;101730.41;;;13.98;100.00
55916;BME280;41826;53.246;-6.670;2022-08-30T02:46:51;101738.16;;;14.00;100.00
55916;BME280;41826;53.246;-6.670;2022-08-30T02:49:16;101735.13;;;13.95;100.00
55916;BME280;41826;53.246;-6.670;2022-08-30T02:51:42;101740.41;;;13.95;100.00
55916;BME280;41826;53.246;-6.670;2022-08-30T02:54:07;101733.03;;;13.98;100.00
55916;BME280;41826;53.246;-6.670;2022-08-30T02:56:32;101735.41;;;13.92;100.00
55916;BME280;41826;53.246;-6.670;2022-08-30T02:58:58;101737.34;;;13.90;100.00
55916;BME280;41826;53.246;-6.670;2022-08-30T03:01:23;101741.38;;;13.84;100.00
55916;BME280;41826;53.246;-6.670;2022-08-30T03:03:49;101736.22;;;13.92;100.00
55916;BME280;41826;53.246;-6.670;2022-08-30T03:06:15;101727.75;;;13.79;100.00
55916;BME280;41826;53.246;-6.670;2022-08-30T03:08:41;101735.69;;;13.69;100.00
55916;BME280;41826;53.246;-6.670;2022-08-30T03:11:06;101739.59;;;13.65;100.00
55916;BME280;41826;53.246;-6.670;2022-08-30T03:13:32;101730.81;;;13.64;100.00
55916;BME280;41826;53.246;-6.670;2022-08-30T03:15:57;101728.34;;;13.73;100.00
55916;BME280;41826;53.246;-6.670;2022-08-30T03:18:24;101734.16;;;13.76;100.00
55916;BME280;41826;53.246;-6.670;2022-08-30T03:20:49;101739.97;;;13.80;100.00
55916;BME280;41826;53.246;-6.670;2022-08-30T03:23:15;101730.56;;;13.68;100.00
55916;BME280;41826;53.246;-6.670;2022-08-30T03:25:41;101728.47;;;13.71;100.00
55916;BME280;41826;53.246;-6.670;2022-08-30T03:28:07;101726.81;;;13.70;100.00
55916;BME280;41826;53.246;-6.670;2022-08-30T03:30:33;101723.06;;;13.63;100.00
55916;BME280;41826;53.246;-6.670;2022-08-30T03:32:59;101732.78;;;13.62;100.00
55916;BME280;41826;53.246;-6.670;2022-08-30T03:35:25;101733.59;;;13.63;100.00
55916;BME280;41826;53.246;-6.670;2022-08-30T03:37:50;101734.56;;;13.62;100.00
55916;BME280;41826;53.246;-6.670;2022-08-30T03:40:17;101736.94;;;13.55;100.00
55916;BME280;41826;53.246;-6.670;2022-08-30T03:42:44;101737.91;;;13.64;100.00
55916;BME280;41826;53.246;-6.670;2022-08-30T03:45:10;101736.09;;;13.64;100.00
55916;BME280;41826;53.246;-6.670;2022-08-30T03:47:36;101736.94;;;13.55;100.00
55916;BME280;41826;53.246;-6.670;2022-08-30T03:50:03;101734.56;;;13.62;100.00
55916;BME280;41826;53.246;-6.670;2022-08-30T03:52:29;101740.25;;;13.67;100.00
55916;BME280;41826;53.246;-6.670;2022-08-30T03:54:55;101720.97;;;13.76;100.00
55916;BME280;41826;53.246;-6.670;2022-08-30T03:57:20;101696.50;;;14.03;100.00
55916;BME280;41826;53.246;-6.670;2022-08-30T03:59:46;101673.66;;;14.22;100.00
55916;BME280;41826;53.246;-6.670;2022-08-30T04:02:11;101651.81;;;14.29;100.00
55916;BME280;41826;53.246;-6.670;2022-08-30T04:04:37;101636.91;;;14.38;100.00
55916;BME280;41826;53.246;-6.670;2022-08-30T04:07:02;101641.16;;;14.49;100.00
55916;BME280;41826;53.246;-6.670;2022-08-30T04:09:27;101631.72;;;14.46;100.00
55916;BME280;41826;53.246;-6.670;2022-08-30T04:11:53;101628.59;;;14.33;100.00
55916;BME280;41826;53.246;-6.670;2022-08-30T04:14:18;101633.31;;;14.29;100.00
55916;BME280;41826;53.246;-6.670;2022-08-30T04:16:44;101649.19;;;14.20;100.00
55916;BME280;41826;53.246;-6.670;2022-08-30T04:19:10;101665.34;;;14.07;100.00
55916;BME280;41826;53.246;-6.670;2022-08-30T04:21:35;101680.13;;;13.90;100.00
55916;BME280;41826;53.246;-6.670;2022-08-30T04:24:01;101690.56;;;13.62;100.00
55916;BME280;41826;53.246;-6.670;2022-08-30T04:26:27;101704.97;;;13.49;100.00
55916;BME280;41826;53.246;-6.670;2022-08-30T04:28:53;101707.50;;;13.50;100.00
55916;BME280;41826;53.246;-6.670;2022-08-30T04:31:19;101721.09;;;13.46;100.00
55916;BME280;41826;53.246;-6.670;2022-08-30T04:33:45;101731.06;;;13.32;100.00
55916;BME280;41826;53.246;-6.670;2022-08-30T04:36:11;101737.09;;;13.13;100.00
55916;BME280;41826;53.246;-6.670;2022-08-30T04:38:38;101745.94;;;13.02;100.00
55916;BME280;41826;53.246;-6.670;2022-08-30T04:41:15;101753.84;;;13.02;100.00
55916;BME280;41826;53.246;-6.670;2022-08-30T04:43:42;101770.09;;;13.08;100.00
55916;BME280;41826;53.246;-6.670;2022-08-30T04:46:08;101778.41;;;13.03;100.00
55916;BME280;41826;53.246;-6.670;2022-08-30T04:48:35;101781.44;;;12.98;100.00
55916;BME280;41826;53.246;-6.670;2022-08-30T04:51:03;101785.88;;;12.98;100.00
55916;BME280;41826;53.246;-6.670;2022-08-30T04:53:30;101793.06;;;12.96;100.00
55916;BME280;41826;53.246;-6.670;2022-08-30T04:55:55;101810.97;;;12.92;100.00
55916;BME280;41826;53.246;-6.670;2022-08-30T04:58:22;101813.88;;;12.89;100.00
55916;BME280;41826;53.246;-6.670;2022-08-30T05:00:47;101814.69;;;12.90;100.00
55916;BME280;41826;53.246;-6.670;2022-08-30T05:03:13;101818.16;;;12.90;100.00
55916;BME280;41826;53.246;-6.670;2022-08-30T05:05:40;101821.63;;;12.91;100.00
55916;BME280;41826;53.246;-6.670;2022-08-30T05:08:17;101822.91;;;12.96;100.00
55916;BME280;41826;53.246;-6.670;2022-08-30T05:10:45;101824.47;;;12.99;100.00
55916;BME280;41826;53.246;-6.670;2022-08-30T05:13:12;101821.94;;;12.97;100.00
55916;BME280;41826;53.246;-6.670;2022-08-30T05:15:37;101825.28;;;12.99;100.00
55916;BME280;41826;53.246;-6.670;2022-08-30T05:18:05;101823.88;;;12.95;100.00
55916;BME280;41826;53.246;-6.670;2022-08-30T05:20:32;101823.03;;;12.95;100.00
55916;BME280;41826;53.246;-6.670;2022-08-30T05:22:57;101828.56;;;12.92;100.00
55916;BME280;41826;53.246;-6.670;2022-08-30T05:25:29;101833.03;;;12.91;100.00
55916;BME280;41826;53.246;-6.670;2022-08-30T05:27:55;101835.97;;;12.77;100.00
55916;BME280;41826;53.246;-6.670;2022-08-30T05:30:21;101838.88;;;12.74;100.00
55916;BME280;41826;53.246;-6.670;2022-08-30T05:32:47;101848.50;;;12.85;100.00
55916;BME280;41826;53.246;-6.670;2022-08-30T05:35:14;101844.34;;;12.82;100.00
55916;BME280;41826;53.246;-6.670;2022-08-30T05:37:40;101847.91;;;12.81;100.00
55916;BME280;41826;53.246;-6.670;2022-08-30T05:40:07;101835.44;;;12.83;100.00
55916;BME280;41826;53.246;-6.670;2022-08-30T05:42:33;101838.78;;;12.85;100.00
55916;BME280;41826;53.246;-6.670;2022-08-30T05:45:00;101845.16;;;12.83;100.00
55916;BME280;41826;53.246;-6.670;2022-08-30T05:47:26;101842.25;;;12.86;100.00
55916;BME280;41826;53.246;-6.670;2022-08-30T05:49:51;101838.69;;;12.87;100.00
55916;BME280;41826;53.246;-6.670;2022-08-30T05:52:17;101829.34;;;12.83;100.00
55916;BME280;41826;53.246;-6.670;2022-08-30T05:54:43;101830.44;;;12.80;100.00
55916;BME280;41826;53.246;-6.670;2022-08-30T05:57:09;101836.88;;;12.87;100.00
55916;BME280;41826;53.246;-6.670;2022-08-30T05:59:34;101832.44;;;12.88;100.00
55916;BME280;41826;53.246;-6.670;2022-08-30T06:02:00;101828.69;;;12.90;100.00
55916;BME280;41826;53.246;-6.670;2022-08-30T06:04:25;101825.22;;;12.90;100.00
55916;BME280;41826;53.246;-6.670;2022-08-30T06:06:51;101818.59;;;12.95;100.00
55916;BME280;41826;53.246;-6.670;2022-08-30T06:09:17;101819.91;;;12.80;100.00
55916;BME280;41826;53.246;-6.670;2022-08-30T06:11:44;101827.97;;;12.88;100.00
55916;BME280;41826;53.246;-6.670;2022-08-30T06:14:09;101826.34;;;12.66;100.00
55916;BME280;41826;53.246;-6.670;2022-08-30T06:16:36;101831.41;;;12.58;100.00
55916;BME280;41826;53.246;-6.670;2022-08-30T06:19:03;101836.19;;;12.64;100.00
55916;BME280;41826;53.246;-6.670;2022-08-30T06:21:32;101828.06;;;12.77;100.00
55916;BME280;41826;53.246;-6.670;2022-08-30T06:24:03;101830.22;;;12.93;100.00
55916;BME280;41826;53.246;-6.670;2022-08-30T06:26:30;101824.03;;;12.94;100.00
55916;BME280;41826;53.246;-6.670;2022-08-30T06:28:56;101830.91;;;13.16;100.00
55916;BME280;41826;53.246;-6.670;2022-08-30T06:31:23;101830.47;;;13.41;100.00
55916;BME280;41826;53.246;-6.670;2022-08-30T06:33:50;101824.78;;;13.46;100.00
55916;BME280;41826;53.246;-6.670;2022-08-30T06:36:22;101835.00;;;13.70;100.00
55916;BME280;41826;53.246;-6.670;2022-08-30T06:38:53;101835.16;;;13.88;100.00
55916;BME280;41826;53.246;-6.670;2022-08-30T06:41:21;101826.66;;;13.65;100.00
55916;BME280;41826;53.246;-6.670;2022-08-30T06:43:47;101827.06;;;13.80;100.00
55916;BME280;41826;53.246;-6.670;2022-08-30T06:46:25;101824.72;;;13.86;100.00
55916;BME280;41826;53.246;-6.670;2022-08-30T06:48:51;101826.16;;;14.00;100.00
55916;BME280;41826;53.246;-6.670;2022-08-30T06:51:21;101819.59;;;13.85;100.00
55916;BME280;41826;53.246;-6.670;2022-08-30T06:53:48;101812.25;;;14.08;100.00
55916;BME280;41826;53.246;-6.670;2022-08-30T06:56:14;101810.56;;;14.17;100.00
55916;BME280;41826;53.246;-6.670;2022-08-30T06:58:40;101821.69;;;14.40;100.00
55916;BME280;41826;53.246;-6.670;2022-08-30T07:01:07;101822.06;;;14.74;100.00
55916;BME280;41826;53.246;-6.670;2022-08-30T07:03:35;101812.00;;;15.25;100.00
55916;BME280;41826;53.246;-6.670;2022-08-30T07:06:00;101800.72;;;15.50;100.00
55916;BME280;41826;53.246;-6.670;2022-08-30T07:08:26;101790.03;;;15.70;100.00
55916;BME280;41826;53.246;-6.670;2022-08-30T07:10:52;101786.66;;;15.77;100.00
55916;BME280;41826;53.246;-6.670;2022-08-30T07:13:19;101785.78;;;15.95;100.00
55916;BME280;41826;53.246;-6.670;2022-08-30T07:15:46;101778.66;;;16.31;100.00
55916;BME280;41826;53.246;-6.670;2022-08-30T07:18:12;101778.06;;;16.19;100.00
55916;BME280;41826;53.246;-6.670;2022-08-30T07:20:57;101775.06;;;16.40;100.00
55916;BME280;41826;53.246;-6.670;2022-08-30T07:23:23;101772.59;;;16.39;100.00
55916;BME280;41826;53.246;-6.670;2022-08-30T07:25:49;101774.41;;;16.64;100.00
55916;BME280;41826;53.246;-6.670;2022-08-30T07:28:15;101776.00;;;16.57;100.00
55916;BME280;41826;53.246;-6.670;2022-08-30T07:30:41;101766.34;;;17.08;100.00
55916;BME280;41826;53.246;-6.670;2022-08-30T07:33:07;101764.75;;;17.24;100.00
55916;BME280;41826;53.246;-6.670;2022-08-30T07:35:32;101769.56;;;17.20;100.00
55916;BME280;41826;53.246;-6.670;2022-08-30T07:37:58;101763.69;;;16.74;100.00
55916;BME280;41826;53.246;-6.670;2022-08-30T07:40:24;101774.56;;;16.37;100.00
55916;BME280;41826;53.246;-6.670;2022-08-30T07:42:49;101778.78;;;17.08;100.00
55916;BME280;41826;53.246;-6.670;2022-08-30T07:45:15;101779.16;;;16.79;100.00
55916;BME280;41826;53.246;-6.670;2022-08-30T07:47:40;101776.94;;;17.51;100.00
55916;BME280;41826;53.246;-6.670;2022-08-30T07:50:06;101774.03;;;17.95;100.00
55916;BME280;41826;53.246;-6.670;2022-08-30T07:52:32;101767.03;;;18.35;100.00
55916;BME280;41826;53.246;-6.670;2022-08-30T07:54:58;101762.69;;;17.68;100.00
55916;BME280;41826;53.246;-6.670;2022-08-30T07:57:24;101768.03;;;18.42;100.00
55916;BME280;41826;53.246;-6.670;2022-08-30T07:59:50;101762.66;;;18.67;100.00
55916;BME280;41826;53.246;-6.670;2022-08-30T08:02:16;101754.38;;;18.61;100.00
55916;BME280;41826;53.246;-6.670;2022-08-30T08:04:42;101756.16;;;18.77;100.00
55916;BME280;41826;53.246;-6.670;2022-08-30T08:07:08;101754.59;;;18.99;100.00
55916;BME280;41826;53.246;-6.670;2022-08-30T08:09:33;101757.47;;;18.90;100.00
55916;BME280;41826;53.246;-6.670;2022-08-30T08:11:59;101763.63;;;19.21;100.00
55916;BME280;41826;53.246;-6.670;2022-08-30T08:14:25;101758.31;;;19.21;100.00
55916;BME280;41826;53.246;-6.670;2022-08-30T08:16:51;101762.44;;;19.32;100.00
55916;BME280;41826;53.246;-6.670;2022-08-30T08:19:16;101767.97;;;19.22;100.00
55916;BME280;41826;53.246;-6.670;2022-08-30T08:21:43;101775.19;;;19.05;100.00
55916;BME280;41826;53.246;-6.670;2022-08-30T08:24:09;101783.78;;;19.16;100.00
55916;BME280;41826;53.246;-6.670;2022-08-30T08:26:36;101777.44;;;19.25;100.00
55916;BME280;41826;53.246;-6.670;2022-08-30T08:29:02;101779.53;;;18.98;100.00
55916;BME280;41826;53.246;-6.670;2022-08-30T08:31:28;101780.44;;;19.22;100.00
55916;BME280;41826;53.246;-6.670;2022-08-30T08:33:54;101777.63;;;19.46;100.00
55916;BME280;41826;53.246;-6.670;2022-08-30T08:36:20;101784.50;;;19.01;100.00
55916;BME280;41826;53.246;-6.670;2022-08-30T08:38:45;101777.78;;;19.22;100.00
55916;BME280;41826;53.246;-6.670;2022-08-30T08:43:55;101779.88;;;19.89;100.00
55916;BME280;41826;53.246;-6.670;2022-08-30T08:46:40;101779.28;;;18.77;100.00
55916;BME280;41826;53.246;-6.670;2022-08-30T08:49:08;101788.66;;;17.91;100.00
55916;BME280;41826;53.246;-6.670;2022-08-30T08:51:37;101782.84;;;18.28;100.00
55916;BME280;41826;53.246;-6.670;2022-08-30T08:56:48;101778.66;;;19.06;100.00
55916;BME280;41826;53.246;-6.670;2022-08-30T08:59:14;101776.44;;;18.70;100.00
55916;BME280;41826;53.246;-6.670;2022-08-30T09:01:40;101777.28;;;18.62;100.00
55916;BME280;41826;53.246;-6.670;2022-08-30T09:04:21;101777.84;;;19.05;100.00
55916;BME280;41826;53.246;-6.670;2022-08-30T09:06:58;101773.91;;;18.93;100.00
55916;BME280;41826;53.246;-6.670;2022-08-30T09:09:35;101777.75;;;19.30;100.00
55916;BME280;41826;53.246;-6.670;2022-08-30T09:12:03;101776.09;;;18.90;100.00
55916;BME280;41826;53.246;-6.670;2022-08-30T09:14:34;101771.28;;;18.85;100.00
55916;BME280;41826;53.246;-6.670;2022-08-30T09:17:05;101787.63;;;18.49;100.00
55916;BME280;41826;53.246;-6.670;2022-08-30T09:22:14;101773.63;;;18.80;100.00
55916;BME280;41826;53.246;-6.670;2022-08-30T09:24:45;101772.91;;;18.94;100.00
55916;BME280;41826;53.246;-6.670;2022-08-30T09:27:17;101772.31;;;19.15;100.00
55916;BME280;41826;53.246;-6.670;2022-08-30T09:30:14;101777.78;;;18.58;100.00
55916;BME280;41826;53.246;-6.670;2022-08-30T09:32:49;101772.00;;;19.10;100.00
55916;BME280;41826;53.246;-6.670;2022-08-30T09:35:23;101768.47;;;18.78;100.00
55916;BME280;41826;53.246;-6.670;2022-08-30T09:37:55;101777.44;;;19.25;100.00
55916;BME280;41826;53.246;-6.670;2022-08-30T09:40:29;101776.81;;;19.15;100.00
55916;BME280;41826;53.246;-6.670;2022-08-30T09:43:00;101784.38;;;18.95;100.00
55916;BME280;41826;53.246;-6.670;2022-08-30T09:45:35;101784.72;;;18.83;100.00
55916;BME280;41826;53.246;-6.670;2022-08-30T09:56:47;101796.56;;;18.81;100.00
55916;BME280;41826;53.246;-6.670;2022-08-30T10:02:26;101803.59;;;18.41;100.00
55916;BME280;41826;53.246;-6.670;2022-08-30T10:07:50;101793.81;;;19.05;100.00
55916;BME280;41826;53.246;-6.670;2022-08-30T10:16:02;101790.63;;;19.10;100.00
55916;BME280;41826;53.246;-6.670;2022-08-30T10:18:51;101791.34;;;19.35;100.00
55916;BME280;41826;53.246;-6.670;2022-08-30T10:21:34;101797.59;;;19.19;100.00
55916;BME280;41826;53.246;-6.670;2022-08-30T10:24:14;101799.69;;;18.93;100.00
55916;BME280;41826;53.246;-6.670;2022-08-30T10:26:49;101805.88;;;18.77;100.00
55916;BME280;41826;53.246;-6.670;2022-08-30T10:29:22;101798.22;;;19.21;100.00
55916;BME280;41826;53.246;-6.670;2022-08-30T10:34:32;101793.81;;;19.37;100.00
55916;BME280;41826;53.246;-6.670;2022-08-30T10:37:26;101793.19;;;18.95;100.00
55916;BME280;41826;53.246;-6.670;2022-08-30T10:39:56;101792.19;;;18.96;100.00
55916;BME280;41826;53.246;-6.670;2022-08-30T10:42:42;101783.75;;;19.24;100.00
55916;BME280;41826;53.246;-6.670;2022-08-30T10:45:12;101798.22;;;19.21;100.00
55916;BME280;41826;53.246;-6.670;2022-08-30T10:47:43;101798.63;;;19.10;100.00
55916;BME280;41826;53.246;-6.670;2022-08-30T10:50:19;101808.25;;;19.11;100.00
55916;BME280;41826;53.246;-6.670;2022-08-30T10:55:22;101806.91;;;18.51;100.00
55916;BME280;41826;53.246;-6.670;2022-08-30T10:57:49;101801.56;;;18.59;100.00
55916;BME280;41826;53.246;-6.670;2022-08-30T11:00:23;101797.56;;;18.72;100.00
55916;BME280;41826;53.246;-6.670;2022-08-30T11:11:40;101813.22;;;18.58;100.00
55916;BME280;41826;53.246;-6.670;2022-08-30T11:14:13;101803.22;;;18.60;100.00
55916;BME280;41826;53.246;-6.670;2022-08-30T11:16:42;101802.75;;;18.57;100.00
55916;BME280;41826;53.246;-6.670;2022-08-30T11:19:22;101798.22;;;18.82;100.00
55916;BME280;41826;53.246;-6.670;2022-08-30T11:21:49;101794.38;;;18.93;100.00
55916;BME280;41826;53.246;-6.670;2022-08-30T11:24:21;101796.75;;;18.79;100.00
55916;BME280;41826;53.246;-6.670;2022-08-30T11:29:35;101796.88;;;18.86;100.00
55916;BME280;41826;53.246;-6.670;2022-08-30T11:40:02;101805.56;;;18.47;100.00
55916;BME280;41826;53.246;-6.670;2022-08-30T11:42:49;101800.13;;;19.13;100.00
55916;BME280;41826;53.246;-6.670;2022-08-30T11:51:06;101793.44;;;19.17;100.00
55916;BME280;41826;53.246;-6.670;2022-08-30T11:56:53;101784.53;;;18.93;100.00
55916;BME280;41826;53.246;-6.670;2022-08-30T12:00:01;101783.25;;;18.89;100.00
55916;BME280;41826;53.246;-6.670;2022-08-30T12:02:49;101789.16;;;19.08;100.00
55916;BME280;41826;53.246;-6.670;2022-08-30T12:10:46;101782.16;;;19.15;100.00
55916;BME280;41826;53.246;-6.670;2022-08-30T12:16:01;101777.53;;;19.00;100.00
55916;BME280;41826;53.246;-6.670;2022-08-30T12:21:02;101769.13;;;19.51;100.00
55916;BME280;41826;53.246;-6.670;2022-08-30T12:29:06;101773.69;;;19.42;100.00
55916;BME280;41826;53.246;-6.670;2022-08-30T12:31:38;101775.59;;;19.25;100.00
55916;BME280;41826;53.246;-6.670;2022-08-30T12:34:04;101770.56;;;19.31;100.00
55916;BME280;41826;53.246;-6.670;2022-08-30T12:36:57;101773.00;;;19.72;100.00
55916;BME280;41826;53.246;-6.670;2022-08-30T12:39:28;101780.03;;;19.64;100.00
55916;BME280;41826;53.246;-6.670;2022-08-30T12:41:55;101786.22;;;18.94;100.00
55916;BME280;41826;53.246;-6.670;2022-08-30T12:44:26;101791.31;;;19.04;100.00
55916;BME280;41826;53.246;-6.670;2022-08-30T12:47:02;101776.38;;;19.34;100.00
55916;BME280;41826;53.246;-6.670;2022-08-30T12:49:34;101788.44;;;18.50;100.00
55916;BME280;41826;53.246;-6.670;2022-08-30T12:52:20;101788.44;;;19.14;100.00
55916;BME280;41826;53.246;-6.670;2022-08-30T12:54:48;101785.47;;;19.09;100.00
55916;BME280;41826;53.246;-6.670;2022-08-30T12:57:43;101777.78;;;18.74;100.00
55916;BME280;41826;53.246;-6.670;2022-08-30T13:00:22;101789.97;;;19.08;100.00
55916;BME280;41826;53.246;-6.670;2022-08-30T13:02:50;101797.72;;;18.70;100.00
55916;BME280;41826;53.246;-6.670;2022-08-30T13:08:10;101795.31;;;19.08;100.00
55916;BME280;41826;53.246;-6.670;2022-08-30T13:11:07;101796.16;;;19.00;100.00
55916;BME280;41826;53.246;-6.670;2022-08-30T13:18:54;101779.94;;;19.49;100.00
55916;BME280;41826;53.246;-6.670;2022-08-30T13:21:29;101778.72;;;19.29;100.00
55916;BME280;41826;53.246;-6.670;2022-08-30T13:24:03;101777.16;;;19.12;100.00
55916;BME280;41826;53.246;-6.670;2022-08-30T13:26:32;101774.16;;;19.46;100.00
55916;BME280;41826;53.246;-6.670;2022-08-30T13:29:01;101781.22;;;18.91;100.00
55916;BME280;41826;53.246;-6.670;2022-08-30T13:31:28;101779.56;;;18.90;100.00
55916;BME280;41826;53.246;-6.670;2022-08-30T13:33:54;101778.56;;;18.91;100.00
55916;BME280;41826;53.246;-6.670;2022-08-30T13:36:24;101772.97;;;18.78;100.00
55916;BME280;41826;53.246;-6.670;2022-08-30T13:38:52;101775.25;;;18.73;100.00
55916;BME280;41826;53.246;-6.670;2022-08-30T13:41:18;101772.97;;;18.70;100.00
55916;BME280;41826;53.246;-6.670;2022-08-30T13:43:45;101772.78;;;18.79;100.00
55916;BME280;41826;53.246;-6.670;2022-08-30T13:46:11;101776.13;;;18.81;100.00
55916;BME280;41826;53.246;-6.670;2022-08-30T13:48:39;101779.78;;;18.64;100.00
55916;BME280;41826;53.246;-6.670;2022-08-30T13:51:04;101785.63;;;18.59;100.00
55916;BME280;41826;53.246;-6.670;2022-08-30T13:53:30;101786.91;;;18.72;100.00
55916;BME280;41826;53.246;-6.670;2022-08-30T13:55:55;101782.63;;;18.79;100.00
55916;BME280;41826;53.246;-6.670;2022-08-30T13:58:21;101776.63;;;18.69;100.00
55916;BME280;41826;53.246;-6.670;2022-08-30T14:00:47;101774.88;;;19.00;100.00
55916;BME280;41826;53.246;-6.670;2022-08-30T14:03:14;101780.28;;;18.84;100.00
55916;BME280;41826;53.246;-6.670;2022-08-30T14:05:41;101786.09;;;18.79;100.00